sensor_id;sensor_type;location;lat;lon;timestamp;pressure;altitude;pressure_sealevel;temperature;humidity
2339;BME280;1180;51.438;6.978;2023-02-11T00:01:47;102088.13;;;9.50;84.20
2339;BME280;1180;51.438;6.978;2023-02-11T00:04:12;102094.25;;;9.45;84.28
2339;BME280;1180;51.438;6.978;2023-02-11T00:06:38;102084.63;;;9.54;84.28
2339;BME280;1180;51.438;6.978;2023-02-11T00:09:04;102088.00;;;9.55;84.12
2339;BME280;1180;51.438;6.978;2023-02-11T00:11:29;102076.94;;;9.54;83.76
2339;BME280;1180;51.438;6.978;2023-02-11T00:14:00;102084.81;;;9.47;84.16
2339;BME280;1180;51.438;6.978;2023-02-11T00:16:26;102071.34;;;9.38;84.50
2339;BME280;1180;51.438;6.978;2023-02-11T00:18:52;102071.09;;;9.48;84.34
2339;BME280;1180;51.438;6.978;2023-02-11T00:21:23;102070.16;;;9.52;84.03
2339;BME280;1180;51.438;6.978;2023-02-11T00:23:49;102073.66;;;9.48;84.09
2339;BME280;1180;51.438;6.978;2023-02-11T00:26:18;102079.50;;;9.53;83.86
2339;BME280;1180;51.438;6.978;2023-02-11T00:28:44;102070.84;;;9.59;83.42
2339;BME280;1180;51.438;6.978;2023-02-11T00:31:11;102074.38;;;9.53;83.72
2339;BME280;1180;51.438;6.978;2023-02-11T00:33:36;102064.06;;;9.56;83.39
2339;BME280;1180;51.438;6.978;2023-02-11T00:36:10;102054.66;;;9.57;83.78
2339;BME280;1180;51.438;6.978;2023-02-11T00:38:37;102070.84;;;9.59;83.77
2339;BME280;1180;51.438;6.978;2023-02-11T00:41:02;102054.59;;;9.58;83.48
2339;BME280;1180;51.438;6.978;2023-02-11T00:43:28;102052.78;;;9.63;83.46
2339;BME280;1180;51.438;6.978;2023-02-11T00:45:53;102059.09;;;9.50;83.82
2339;BME280;1180;51.438;6.978;2023-02-11T00:48:18;102059.88;;;9.53;83.97
2339;BME280;1180;51.438;6.978;2023-02-11T00:50:44;102054.56;;;9.60;83.39
2339;BME280;1180;51.438;6.978;2023-02-11T00:53:09;102053.78;;;9.58;83.40
2339;BME280;1180;51.438;6.978;2023-02-11T00:55:35;102057.25;;;9.55;83.62
2339;BME280;1180;51.438;6.978;2023-02-11T00:58:00;102049.63;;;9.53;83.54
2339;BME280;1180;51.438;6.978;2023-02-11T01:00:26;102048.72;;;9.54;83.81
2339;BME280;1180;51.438;6.978;2023-02-11T01:02:52;102048.03;;;9.48;83.77
2339;BME280;1180;51.438;6.978;2023-02-11T01:05:18;102053.22;;;9.46;83.64
2339;BME280;1180;51.438;6.978;2023-02-11T01:07:43;102050.56;;;9.49;84.49
2339;BME280;1180;51.438;6.978;2023-02-11T01:10:09;102056.44;;;9.53;83.84
2339;BME280;1180;51.438;6.978;2023-02-11T01:12:35;102060.22;;;9.38;84.59
2339;BME280;1180;51.438;6.978;2023-02-11T01:15:00;102056.50;;;9.51;84.01
2339;BME280;1180;51.438;6.978;2023-02-11T01:17:26;102059.97;;;9.49;84.16
2339;BME280;1180;51.438;6.978;2023-02-11T01:19:51;102054.66;;;9.57;83.58
2339;BME280;1180;51.438;6.978;2023-02-11T01:22:17;102059.09;;;9.50;83.61
2339;BME280;1180;51.438;6.978;2023-02-11T01:24:42;102059.00;;;9.53;83.67
2339;BME280;1180;51.438;6.978;2023-02-11T01:27:07;102057.25;;;9.55;83.84
2339;BME280;1180;51.438;6.978;2023-02-11T01:29:32;102065.59;;;9.63;83.59
2339;BME280;1180;51.438;6.978;2023-02-11T01:31:59;102069.09;;;9.59;83.32
2339;BME280;1180;51.438;6.978;2023-02-11T01:34:25;102073.56;;;9.52;83.79
2339;BME280;1180;51.438;6.978;2023-02-11T01:36:50;102079.69;;;9.47;84.00
2339;BME280;1180;51.438;6.978;2023-02-11T01:39:15;102083.00;;;9.50;84.05
2339;BME280;1180;51.438;6.978;2023-02-11T01:41:41;102080.44;;;9.50;84.11
2339;BME280;1180;51.438;6.978;2023-02-11T01:46:47;102063.94;;;9.61;83.93
2339;BME280;1180;51.438;6.978;2023-02-11T01:49:20;102060.69;;;9.54;83.76
2339;BME280;1180;51.438;6.978;2023-02-11T01:51:51;102055.81;;;9.45;84.22
2339;BME280;1180;51.438;6.978;2023-02-11T01:54:21;102042.03;;;9.49;84.27
2339;BME280;1180;51.438;6.978;2023-02-11T01:57:07;102039.28;;;9.57;84.02
2339;BME280;1180;51.438;6.978;2023-02-11T02:02:29;102040.19;;;9.54;83.71
2339;BME280;1180;51.438;6.978;2023-02-11T02:05:05;102040.97;;;9.58;83.73
2339;BME280;1180;51.438;6.978;2023-02-11T02:07:43;102040.91;;;9.59;83.36
2339;BME280;1180;51.438;6.978;2023-02-11T02:10:13;102043.63;;;9.53;83.61
2339;BME280;1180;51.438;6.978;2023-02-11T02:12:41;102056.25;;;9.61;83.58
2339;BME280;1180;51.438;6.978;2023-02-11T02:37:56;102015.78;;;9.39;84.87
2339;BME280;1180;51.438;6.978;2023-02-11T02:40:35;102013.41;;;9.33;85.41
2339;BME280;1180;51.438;6.978;2023-02-11T02:43:03;102012.56;;;9.32;85.45
2339;BME280;1180;51.438;6.978;2023-02-11T02:45:29;102009.16;;;9.32;85.33
2339;BME280;1180;51.438;6.978;2023-02-11T02:47:54;102013.63;;;9.23;85.70
2339;BME280;1180;51.438;6.978;2023-02-11T02:50:25;102005.94;;;9.23;85.89
2339;BME280;1180;51.438;6.978;2023-02-11T02:53:17;102010.84;;;9.33;85.76
2339;BME280;1180;51.438;6.978;2023-02-11T02:56:04;102009.13;;;9.33;85.43
2339;BME280;1180;51.438;6.978;2023-02-11T03:01:17;102007.38;;;9.35;85.18
2339;BME280;1180;51.438;6.978;2023-02-11T03:04:04;102001.53;;;9.30;85.23
2339;BME280;1180;51.438;6.978;2023-02-11T03:09:11;101990.50;;;9.27;85.67
2339;BME280;1180;51.438;6.978;2023-02-11T03:11:37;101980.50;;;9.17;85.88
2339;BME280;1180;51.438;6.978;2023-02-11T03:14:07;101984.59;;;9.23;85.82
2339;BME280;1180;51.438;6.978;2023-02-11T03:16:32;101984.59;;;9.23;85.97
2339;BME280;1180;51.438;6.978;2023-02-11T03:19:09;101998.25;;;9.23;85.56
2339;BME280;1180;51.438;6.978;2023-02-11T03:21:38;101995.97;;;9.13;86.54
2339;BME280;1180;51.438;6.978;2023-02-11T03:24:07;102006.84;;;9.21;86.17
2339;BME280;1180;51.438;6.978;2023-02-11T03:26:37;102000.03;;;9.21;85.84
2339;BME280;1180;51.438;6.978;2023-02-11T03:29:11;102001.00;;;9.17;86.31
2339;BME280;1180;51.438;6.978;2023-02-11T03:37:13;102008.06;;;9.06;86.73
2339;BME280;1180;51.438;6.978;2023-02-11T03:39:45;102014.75;;;9.13;86.47
2339;BME280;1180;51.438;6.978;2023-02-11T03:42:12;102001.78;;;9.19;86.35
2339;BME280;1180;51.438;6.978;2023-02-11T03:44:44;102000.91;;;9.20;86.13
2339;BME280;1180;51.438;6.978;2023-02-11T03:47:11;101989.63;;;9.26;85.79
2339;BME280;1180;51.438;6.978;2023-02-11T03:49:39;101988.09;;;9.20;86.10
2339;BME280;1180;51.438;6.978;2023-02-11T03:52:07;101983.34;;;9.05;87.24
2339;BME280;1180;51.438;6.978;2023-02-11T03:54:35;101988.38;;;9.09;87.28
2339;BME280;1180;51.438;6.978;2023-02-11T03:57:02;102000.28;;;9.12;87.34
2339;BME280;1180;51.438;6.978;2023-02-11T03:59:28;101996.00;;;9.11;87.42
2339;BME280;1180;51.438;6.978;2023-02-11T04:01:53;101991.84;;;9.07;87.68
2339;BME280;1180;51.438;6.978;2023-02-11T04:04:19;101979.00;;;9.08;87.62
2339;BME280;1180;51.438;6.978;2023-02-11T04:06:44;101984.13;;;9.08;87.58
2339;BME280;1180;51.438;6.978;2023-02-11T04:09:10;101978.91;;;9.12;87.63
2339;BME280;1180;51.438;6.978;2023-02-11T04:11:36;101982.97;;;9.20;87.38
2339;BME280;1180;51.438;6.978;2023-02-11T04:14:01;101977.84;;;9.20;87.14
2339;BME280;1180;51.438;6.978;2023-02-11T04:16:27;101979.41;;;9.26;87.03
2339;BME280;1180;51.438;6.978;2023-02-11T04:18:55;101985.28;;;9.30;86.60
2339;BME280;1180;51.438;6.978;2023-02-11T04:21:20;101989.78;;;9.21;86.75
2339;BME280;1180;51.438;6.978;2023-02-11T04:23:45;101989.06;;;9.16;87.32
2339;BME280;1180;51.438;6.978;2023-02-11T04:26:11;101994.22;;;9.15;87.98
2339;BME280;1180;51.438;6.978;2023-02-11T04:28:36;102003.66;;;9.13;88.20
2339;BME280;1180;51.438;6.978;2023-02-11T04:31:01;102003.81;;;9.06;88.61
2339;BME280;1180;51.438;6.978;2023-02-11T04:33:26;102000.38;;;9.07;88.55
2339;BME280;1180;51.438;6.978;2023-02-11T04:35:52;102003.81;;;9.06;89.36
2339;BME280;1180;51.438;6.978;2023-02-11T04:38:17;102010.50;;;9.12;89.38
2339;BME280;1180;51.438;6.978;2023-02-11T04:40:43;102018.22;;;9.10;89.52
2339;BME280;1180;51.438;6.978;2023-02-11T04:43:08;102020.81;;;9.09;89.81
2339;BME280;1180;51.438;6.978;2023-02-11T04:45:33;102018.41;;;9.03;90.66
2339;BME280;1180;51.438;6.978;2023-02-11T04:48:01;102010.56;;;9.09;90.28
2339;BME280;1180;51.438;6.978;2023-02-11T04:50:26;102018.19;;;9.12;90.00
2339;BME280;1180;51.438;6.978;2023-02-11T04:52:52;102005.56;;;9.04;90.89
2339;BME280;1180;51.438;6.978;2023-02-11T04:55:17;102002.81;;;9.12;90.31
2339;BME280;1180;51.438;6.978;2023-02-11T04:57:42;102005.66;;;9.00;91.37
2339;BME280;1180;51.438;6.978;2023-02-11T05:00:08;101999.91;;;8.90;91.97
2339;BME280;1180;51.438;6.978;2023-02-11T05:02:34;101998.91;;;8.97;91.83
2339;BME280;1180;51.438;6.978;2023-02-11T05:04:59;101995.47;;;8.98;92.04
2339;BME280;1180;51.438;6.978;2023-02-11T05:07:25;101998.91;;;8.97;92.63
2339;BME280;1180;51.438;6.978;2023-02-11T05:09:50;102005.66;;;9.00;92.63
2339;BME280;1180;51.438;6.978;2023-02-11T05:12:17;102000.59;;;8.98;93.13
2339;BME280;1180;51.438;6.978;2023-02-11T05:14:42;102000.44;;;9.04;93.39
2339;BME280;1180;51.438;6.978;2023-02-11T05:17:07;102006.31;;;9.08;93.33
2339;BME280;1180;51.438;6.978;2023-02-11T05:19:33;102007.25;;;9.05;93.48
2339;BME280;1180;51.438;6.978;2023-02-11T05:21:58;102005.50;;;9.06;93.32
2339;BME280;1180;51.438;6.978;2023-02-11T05:24:24;101997.91;;;9.03;93.74
2339;BME280;1180;51.438;6.978;2023-02-11T05:26:49;102003.81;;;9.06;94.00
2339;BME280;1180;51.438;6.978;2023-02-11T05:29:14;102016.63;;;9.06;94.13
2339;BME280;1180;51.438;6.978;2023-02-11T05:31:40;102008.94;;;9.06;94.55
2339;BME280;1180;51.438;6.978;2023-02-11T05:34:05;101991.16;;;9.00;94.62
2339;BME280;1180;51.438;6.978;2023-02-11T05:36:30;101984.34;;;8.99;95.17
2339;BME280;1180;51.438;6.978;2023-02-11T05:38:56;101979.97;;;9.03;95.19
2339;BME280;1180;51.438;6.978;2023-02-11T05:41:21;101982.69;;;8.98;95.41
2339;BME280;1180;51.438;6.978;2023-02-11T05:43:48;101980.22;;;8.93;95.31
2339;BME280;1180;51.438;6.978;2023-02-11T05:46:16;101986.78;;;9.04;95.19
2339;BME280;1180;51.438;6.978;2023-02-11T05:48:42;101986.88;;;9.01;95.35
2339;BME280;1180;51.438;6.978;2023-02-11T05:51:07;101988.78;;;8.92;95.60
2339;BME280;1180;51.438;6.978;2023-02-11T05:53:33;101995.44;;;9.00;95.95
2339;BME280;1180;51.438;6.978;2023-02-11T05:55:58;101989.44;;;9.01;95.63
2339;BME280;1180;51.438;6.978;2023-02-11T05:58:24;101990.34;;;8.98;95.60
2339;BME280;1180;51.438;6.978;2023-02-11T06:00:49;101974.94;;;9.00;95.36
2339;BME280;1180;51.438;6.978;2023-02-11T06:03:15;101980.84;;;9.03;95.50
2339;BME280;1180;51.438;6.978;2023-02-11T06:05:42;101984.31;;;9.01;95.54
2339;BME280;1180;51.438;6.978;2023-02-11T06:08:07;101981.72;;;9.02;95.55
2339;BME280;1180;51.438;6.978;2023-02-11T06:10:33;101988.69;;;8.97;96.13
2339;BME280;1180;51.438;6.978;2023-02-11T06:12:58;101980.19;;;8.95;96.07
2339;BME280;1180;51.438;6.978;2023-02-11T06:15:23;101988.69;;;8.95;96.35
2339;BME280;1180;51.438;6.978;2023-02-11T06:17:49;101984.47;;;8.93;96.37
2339;BME280;1180;51.438;6.978;2023-02-11T06:20:14;101988.59;;;9.00;96.89
2339;BME280;1180;51.438;6.978;2023-02-11T06:22:39;101986.63;;;9.10;95.98
2339;BME280;1180;51.438;6.978;2023-02-11T06:25:05;101986.69;;;9.08;95.80
2339;BME280;1180;51.438;6.978;2023-02-11T06:27:31;101992.69;;;9.07;95.91
2339;BME280;1180;51.438;6.978;2023-02-11T06:29:56;101981.47;;;9.12;95.49
2339;BME280;1180;51.438;6.978;2023-02-11T06:32:22;101989.44;;;9.01;96.03
2339;BME280;1180;51.438;6.978;2023-02-11T06:34:47;101988.72;;;8.94;96.59
2339;BME280;1180;51.438;6.978;2023-02-11T06:37:13;101989.56;;;8.96;96.77
2339;BME280;1180;51.438;6.978;2023-02-11T06:39:38;101994.78;;;8.91;96.96
2339;BME280;1180;51.438;6.978;2023-02-11T06:42:03;101993.72;;;9.00;97.11
2339;BME280;1180;51.438;6.978;2023-02-11T06:44:29;101994.69;;;8.96;97.12
2339;BME280;1180;51.438;6.978;2023-02-11T06:46:54;101993.56;;;9.06;96.44
2339;BME280;1180;51.438;6.978;2023-02-11T06:49:20;101993.00;;;8.95;97.03
2339;BME280;1180;51.438;6.978;2023-02-11T06:51:45;101997.19;;;8.98;96.91
2339;BME280;1180;51.438;6.978;2023-02-11T06:54:11;102002.22;;;9.02;96.99
2339;BME280;1180;51.438;6.978;2023-02-11T06:56:38;101998.97;;;8.94;96.98
2339;BME280;1180;51.438;6.978;2023-02-11T06:59:04;101999.66;;;9.02;96.86
2339;BME280;1180;51.438;6.978;2023-02-11T07:01:29;101999.66;;;9.01;97.22
2339;BME280;1180;51.438;6.978;2023-02-11T07:03:55;102005.59;;;9.03;96.93
2339;BME280;1180;51.438;6.978;2023-02-11T07:06:22;102008.38;;;8.95;96.97
2339;BME280;1180;51.438;6.978;2023-02-11T07:08:50;102009.91;;;9.01;97.13
2339;BME280;1180;51.438;6.978;2023-02-11T07:11:19;102014.00;;;9.08;96.66
2339;BME280;1180;51.438;6.978;2023-02-11T07:13:46;102011.50;;;9.06;96.88
2339;BME280;1180;51.438;6.978;2023-02-11T07:16:14;102008.22;;;9.00;96.56
2339;BME280;1180;51.438;6.978;2023-02-11T07:18:40;102014.97;;;9.04;97.31
2339;BME280;1180;51.438;6.978;2023-02-11T07:21:08;102011.44;;;9.08;96.54
2339;BME280;1180;51.438;6.978;2023-02-11T07:23:34;102013.19;;;9.07;96.77
2339;BME280;1180;51.438;6.978;2023-02-11T07:26:05;102019.25;;;9.03;96.83
2339;BME280;1180;51.438;6.978;2023-02-11T07:28:31;102010.78;;;9.00;96.79
2339;BME280;1180;51.438;6.978;2023-02-11T07:30:56;102027.69;;;9.07;96.88
2339;BME280;1180;51.438;6.978;2023-02-11T07:33:22;102026.78;;;9.09;97.13
2339;BME280;1180;51.438;6.978;2023-02-11T07:35:48;102038.72;;;9.10;96.68
2339;BME280;1180;51.438;6.978;2023-02-11T07:38:13;102035.28;;;9.10;96.68
2339;BME280;1180;51.438;6.978;2023-02-11T07:40:38;102036.03;;;9.15;96.58
2339;BME280;1180;51.438;6.978;2023-02-11T07:43:05;102041.03;;;9.20;96.32
2339;BME280;1180;51.438;6.978;2023-02-11T07:45:30;102041.19;;;9.14;96.41
2339;BME280;1180;51.438;6.978;2023-02-11T07:47:55;102044.47;;;9.20;96.12
2339;BME280;1180;51.438;6.978;2023-02-11T07:50:21;102038.53;;;9.18;95.59
2339;BME280;1180;51.438;6.978;2023-02-11T07:52:46;102042.72;;;9.21;95.50
2339;BME280;1180;51.438;6.978;2023-02-11T07:55:11;102032.44;;;9.22;95.67
2339;BME280;1180;51.438;6.978;2023-02-11T07:57:37;102031.03;;;9.10;96.35
2339;BME280;1180;51.438;6.978;2023-02-11T08:00:03;102041.25;;;9.12;96.43
2339;BME280;1180;51.438;6.978;2023-02-11T08:02:29;102026.69;;;9.14;96.22
2339;BME280;1180;51.438;6.978;2023-02-11T08:04:54;102034.38;;;9.14;96.12
2339;BME280;1180;51.438;6.978;2023-02-11T08:07:19;102031.81;;;9.14;96.24
2339;BME280;1180;51.438;6.978;2023-02-11T08:09:44;102030.00;;;9.18;96.17
2339;BME280;1180;51.438;6.978;2023-02-11T08:12:10;102033.41;;;9.18;96.03
2339;BME280;1180;51.438;6.978;2023-02-11T08:14:36;102045.28;;;9.21;96.30
2339;BME280;1180;51.438;6.978;2023-02-11T08:17:02;102044.47;;;9.19;96.26
2339;BME280;1180;51.438;6.978;2023-02-11T08:19:27;102044.72;;;9.09;96.37
2339;BME280;1180;51.438;6.978;2023-02-11T08:21:56;102042.88;;;9.15;96.64
2339;BME280;1180;51.438;6.978;2023-02-11T08:24:21;102053.97;;;9.15;96.50
2339;BME280;1180;51.438;6.978;2023-02-11T08:26:47;102058.31;;;9.12;97.30
2339;BME280;1180;51.438;6.978;2023-02-11T08:29:14;102064.25;;;9.14;97.18
2339;BME280;1180;51.438;6.978;2023-02-11T08:31:43;102058.97;;;9.20;97.30
2339;BME280;1180;51.438;6.978;2023-02-11T08:34:09;102062.22;;;9.28;96.53
2339;BME280;1180;51.438;6.978;2023-02-11T08:36:36;102058.00;;;9.24;96.09
2339;BME280;1180;51.438;6.978;2023-02-11T08:39:05;102064.00;;;9.23;96.65
2339;BME280;1180;51.438;6.978;2023-02-11T08:41:31;102066.50;;;9.26;96.87
2339;BME280;1180;51.438;6.978;2023-02-11T08:43:57;102064.78;;;9.27;96.96
2339;BME280;1180;51.438;6.978;2023-02-11T08:46:23;102062.13;;;9.31;96.61
2339;BME280;1180;51.438;6.978;2023-02-11T08:48:48;102064.78;;;9.27;96.84
2339;BME280;1180;51.438;6.978;2023-02-11T08:51:19;102060.22;;;9.38;96.88
2339;BME280;1180;51.438;6.978;2023-02-11T08:53:46;102061.91;;;9.39;96.15
2339;BME280;1180;51.438;6.978;2023-02-11T08:56:12;102070.41;;;9.41;96.50
2339;BME280;1180;51.438;6.978;2023-02-11T08:58:38;102077.91;;;9.49;95.79
2339;BME280;1180;51.438;6.978;2023-02-11T09:01:10;102071.81;;;9.54;95.31
2339;BME280;1180;51.438;6.978;2023-02-11T09:03:36;102076.22;;;9.49;95.82
2339;BME280;1180;51.438;6.978;2023-02-11T09:06:04;102082.06;;;9.54;95.79
2339;BME280;1180;51.438;6.978;2023-02-11T09:08:30;102078.63;;;9.54;95.63
2339;BME280;1180;51.438;6.978;2023-02-11T09:10:56;102091.38;;;9.57;95.35
2339;BME280;1180;51.438;6.978;2023-02-11T09:13:21;102093.09;;;9.57;95.84
2339;BME280;1180;51.438;6.978;2023-02-11T09:15:46;102094.72;;;9.59;95.68
2339;BME280;1180;51.438;6.978;2023-02-11T09:18:12;102096.38;;;9.63;95.40
2339;BME280;1180;51.438;6.978;2023-02-11T09:20:37;102098.19;;;9.58;95.40
2339;BME280;1180;51.438;6.978;2023-02-11T09:23:03;102098.94;;;9.63;95.36
2339;BME280;1180;51.438;6.978;2023-02-11T09:25:28;102098.19;;;9.58;95.50
2339;BME280;1180;51.438;6.978;2023-02-11T09:27:54;102098.25;;;9.55;95.74
2339;BME280;1180;51.438;6.978;2023-02-11T09:30:19;102101.50;;;9.62;95.90
2339;BME280;1180;51.438;6.978;2023-02-11T09:32:45;102109.97;;;9.65;95.13
2339;BME280;1180;51.438;6.978;2023-02-11T09:35:10;102107.50;;;9.62;95.74
2339;BME280;1180;51.438;6.978;2023-02-11T09:37:36;102108.25;;;9.66;95.50
2339;BME280;1180;51.438;6.978;2023-02-11T09:40:01;102114.06;;;9.73;95.31
2339;BME280;1180;51.438;6.978;2023-02-11T09:45:03;102120.00;;;9.75;95.39
2339;BME280;1180;51.438;6.978;2023-02-11T09:47:34;102116.81;;;9.65;95.47
2339;BME280;1180;51.438;6.978;2023-02-11T09:50:09;102116.06;;;9.61;96.28
2339;BME280;1180;51.438;6.978;2023-02-11T09:52:55;102115.75;;;9.74;96.03
2339;BME280;1180;51.438;6.978;2023-02-11T09:55:27;102119.13;;;9.74;95.42
2339;BME280;1180;51.438;6.978;2023-02-11T09:57:53;102116.47;;;9.79;95.58
2339;BME280;1180;51.438;6.978;2023-02-11T10:00:26;102123.09;;;9.88;95.36
2339;BME280;1180;51.438;6.978;2023-02-11T10:22:50;102128.84;;;9.96;95.06
2339;BME280;1180;51.438;6.978;2023-02-11T10:25:34;102134.84;;;9.96;95.18
2339;BME280;1180;51.438;6.978;2023-02-11T10:28:13;102139.03;;;9.99;95.36
2339;BME280;1180;51.438;6.978;2023-02-11T10:30:49;102136.34;;;10.04;94.70
2339;BME280;1180;51.438;6.978;2023-02-11T10:33:45;102136.78;;;10.20;94.56
2339;BME280;1180;51.438;6.978;2023-02-11T10:36:14;102151.13;;;10.27;93.98
2339;BME280;1180;51.438;6.978;2023-02-11T10:38:40;102150.13;;;10.33;93.54
2339;BME280;1180;51.438;6.978;2023-02-11T10:41:09;102148.34;;;10.35;93.59
2339;BME280;1180;51.438;6.978;2023-02-11T10:43:37;102144.03;;;10.35;93.38
2339;BME280;1180;51.438;6.978;2023-02-11T10:46:03;102138.41;;;10.22;94.14
2339;BME280;1180;51.438;6.978;2023-02-11T10:51:20;102135.53;;;10.35;93.96
2339;BME280;1180;51.438;6.978;2023-02-11T10:53:48;102138.97;;;10.34;93.88
2339;BME280;1180;51.438;6.978;2023-02-11T10:56:26;102145.81;;;10.33;94.08
2339;BME280;1180;51.438;6.978;2023-02-11T11:01:20;102149.53;;;10.54;92.93
2339;BME280;1180;51.438;6.978;2023-02-11T11:03:48;102157.22;;;10.54;92.76
2339;BME280;1180;51.438;6.978;2023-02-11T11:06:14;102161.56;;;10.52;92.89
2339;BME280;1180;51.438;6.978;2023-02-11T11:08:48;102156.50;;;10.51;92.66
2339;BME280;1180;51.438;6.978;2023-02-11T11:11:17;102166.97;;;10.43;93.16
2339;BME280;1180;51.438;6.978;2023-02-11T11:13:53;102165.22;;;10.44;93.42
2339;BME280;1180;51.438;6.978;2023-02-11T11:16:34;102166.78;;;10.49;93.60
2339;BME280;1180;51.438;6.978;2023-02-11T11:24:00;102168.88;;;10.66;91.91
2339;BME280;1180;51.438;6.978;2023-02-11T11:26:54;102175.88;;;10.61;92.32
2339;BME280;1180;51.438;6.978;2023-02-11T11:31:56;102175.91;;;10.60;92.98
2339;BME280;1180;51.438;6.978;2023-02-11T11:34:33;102180.19;;;10.61;92.96
2339;BME280;1180;51.438;6.978;2023-02-11T11:37:01;102181.09;;;10.58;92.95
2339;BME280;1180;51.438;6.978;2023-02-11T11:39:34;102185.25;;;10.64;92.51
2339;BME280;1180;51.438;6.978;2023-02-11T11:42:02;102185.25;;;10.64;92.66
2339;BME280;1180;51.438;6.978;2023-02-11T11:44:34;102172.22;;;10.70;92.29
2339;BME280;1180;51.438;6.978;2023-02-11T11:47:21;102170.47;;;10.71;92.17
2339;BME280;1180;51.438;6.978;2023-02-11T11:50:14;102161.78;;;10.75;91.64
2339;BME280;1180;51.438;6.978;2023-02-11T11:55:18;102165.13;;;10.78;91.82
2339;BME280;1180;51.438;6.978;2023-02-11T11:57:45;102160.59;;;10.87;91.58
2339;BME280;1180;51.438;6.978;2023-02-11T12:03:09;102161.16;;;10.68;92.69
2339;BME280;1180;51.438;6.978;2023-02-11T12:05:41;102156.63;;;10.76;92.33
2339;BME280;1180;51.438;6.978;2023-02-11T12:10:56;102168.38;;;10.83;92.84
2339;BME280;1180;51.438;6.978;2023-02-11T12:16:22;102171.34;;;11.00;91.23
2339;BME280;1180;51.438;6.978;2023-02-11T12:22:30;102169.00;;;10.92;91.40
2339;BME280;1180;51.438;6.978;2023-02-11T12:25:26;102168.09;;;10.93;91.46
2339;BME280;1180;51.438;6.978;2023-02-11T12:41:30;102148.50;;;10.90;92.06
2339;BME280;1180;51.438;6.978;2023-02-11T12:47:58;102156.88;;;10.97;91.69
2339;BME280;1180;51.438;6.978;2023-02-11T12:50:49;102145.47;;;11.06;91.95
2339;BME280;1180;51.438;6.978;2023-02-11T12:56:08;102138.59;;;11.06;91.08
2339;BME280;1180;51.438;6.978;2023-02-11T12:58:36;102133.56;;;11.03;91.82
2339;BME280;1180;51.438;6.978;2023-02-11T13:01:15;102131.00;;;11.03;91.43
2339;BME280;1180;51.438;6.978;2023-02-11T13:03:47;102125.66;;;11.09;91.87
2339;BME280;1180;51.438;6.978;2023-02-11T13:06:19;102131.59;;;11.11;91.81
2339;BME280;1180;51.438;6.978;2023-02-11T13:08:49;102129.38;;;11.27;91.71
2339;BME280;1180;51.438;6.978;2023-02-11T13:11:19;102134.47;;;11.29;90.94
2339;BME280;1180;51.438;6.978;2023-02-11T13:14:15;102131.13;;;11.27;90.72
2339;BME280;1180;51.438;6.978;2023-02-11T13:16:47;102129.25;;;11.32;90.80
2339;BME280;1180;51.438;6.978;2023-02-11T13:22:06;102133.09;;;11.46;90.15
2339;BME280;1180;51.438;6.978;2023-02-11T13:30:07;102142.00;;;11.35;89.66
2339;BME280;1180;51.438;6.978;2023-02-11T13:35:37;102131.06;;;11.29;90.60
2339;BME280;1180;51.438;6.978;2023-02-11T13:38:18;102131.72;;;11.35;90.26
2339;BME280;1180;51.438;6.978;2023-02-11T13:41:03;102136.50;;;11.19;91.02
2339;BME280;1180;51.438;6.978;2023-02-11T13:43:31;102135.09;;;11.36;90.90
2339;BME280;1180;51.438;6.978;2023-02-11T13:46:02;102142.69;;;11.40;90.44
2339;BME280;1180;51.438;6.978;2023-02-11T13:48:30;102141.81;;;11.40;89.93
2339;BME280;1180;51.438;6.978;2023-02-11T13:51:05;102139.63;;;11.29;90.28
2339;BME280;1180;51.438;6.978;2023-02-11T13:53:49;102151.25;;;11.12;91.29
2339;BME280;1180;51.438;6.978;2023-02-11T13:58:53;102139.31;;;11.11;91.86
2339;BME280;1180;51.438;6.978;2023-02-11T14:04:30;102146.72;;;11.21;91.73
2339;BME280;1180;51.438;6.978;2023-02-11T14:07:27;102142.13;;;11.31;91.39
2339;BME280;1180;51.438;6.978;2023-02-11T14:16:08;102144.47;;;11.38;91.22
2339;BME280;1180;51.438;6.978;2023-02-11T14:21:30;102139.31;;;11.38;91.08
2339;BME280;1180;51.438;6.978;2023-02-11T14:26:50;102143.03;;;11.56;90.45
2339;BME280;1180;51.438;6.978;2023-02-11T14:37:32;102143.88;;;11.82;88.97
2339;BME280;1180;51.438;6.978;2023-02-11T14:40:33;102144.06;;;11.76;88.96
2339;BME280;1180;51.438;6.978;2023-02-11T14:43:26;102126.88;;;11.78;89.02
2339;BME280;1180;51.438;6.978;2023-02-11T14:45:55;102136.09;;;11.84;88.74
2339;BME280;1180;51.438;6.978;2023-02-11T14:48:27;102130.75;;;11.90;88.46
2339;BME280;1180;51.438;6.978;2023-02-11T14:50:59;102132.16;;;11.99;88.52
2339;BME280;1180;51.438;6.978;2023-02-11T14:53:27;102141.56;;;12.00;88.17
2339;BME280;1180;51.438;6.978;2023-02-11T14:55:54;102144.84;;;12.05;87.70
2339;BME280;1180;51.438;6.978;2023-02-11T14:58:21;102143.78;;;12.11;87.28
2339;BME280;1180;51.438;6.978;2023-02-11T15:03:40;102137.78;;;12.36;87.38
2339;BME280;1180;51.438;6.978;2023-02-11T15:08:49;102141.25;;;12.35;85.97
2339;BME280;1180;51.438;6.978;2023-02-11T15:11:18;102145.03;;;12.24;86.11
2339;BME280;1180;51.438;6.978;2023-02-11T15:13:44;102134.72;;;12.24;86.47
2339;BME280;1180;51.438;6.978;2023-02-11T15:16:24;102141.72;;;12.21;86.22
2339;BME280;1180;51.438;6.978;2023-02-11T15:18:53;102138.59;;;12.12;86.17
2339;BME280;1180;51.438;6.978;2023-02-11T15:21:25;102145.44;;;12.13;86.68
2339;BME280;1180;51.438;6.978;2023-02-11T15:26:24;102147.53;;;12.02;87.37
2339;BME280;1180;51.438;6.978;2023-02-11T15:28:50;102158.72;;;12.01;87.46
2339;BME280;1180;51.438;6.978;2023-02-11T15:31:20;102157.19;;;11.95;87.91
2339;BME280;1180;51.438;6.978;2023-02-11T15:33:47;102155.00;;;12.08;88.71
2339;BME280;1180;51.438;6.978;2023-02-11T15:36:13;102152.63;;;12.04;87.86
2339;BME280;1180;51.438;6.978;2023-02-11T15:38:39;102158.72;;;12.01;87.76
2339;BME280;1180;51.438;6.978;2023-02-11T15:41:06;102155.13;;;12.05;nan
2339;BME280;1180;51.438;6.978;2023-02-11T15:46:10;102161.31;;;11.99;88.23
2339;BME280;1180;51.438;6.978;2023-02-11T15:48:48;102162.91;;;12.04;87.94
2339;BME280;1180;51.438;6.978;2023-02-11T15:51:28;102168.19;;;11.99;87.73
2339;BME280;1180;51.438;6.978;2023-02-11T15:53:57;102172.66;;;11.94;88.06
2339;BME280;1180;51.438;6.978;2023-02-11T15:56:28;102171.97;;;11.89;88.25
2339;BME280;1180;51.438;6.978;2023-02-11T15:58:56;102175.59;;;11.83;88.81
2339;BME280;1180;51.438;6.978;2023-02-11T16:01:29;102174.75;;;11.82;88.84
2339;BME280;1180;51.438;6.978;2023-02-11T16:03:55;102174.94;;;11.76;89.33
2339;BME280;1180;51.438;6.978;2023-02-11T16:06:26;102167.41;;;11.72;89.51